Time;durP1;ratioP1;P1;durP2;ratioP2;P2;SDS_P1;SDS_P2;PMS_P1;PMS_P2;Temp;Humidity;BMP_temperature;BMP_pressure;BME280_temperature;BME280_humidity;BME280_pressure;Samples;Min_cycle;Max_cycle;Signal;HPM_P1;HPM_P2
2023/01/14 00:01:26;;;;;;;12.55;1.65;;;;;;;-146.73;100.00;56421.06;6152004;23;20014;-93
2023/01/14 00:03:55;;;;;;;14.52;2.30;;;;;;;-146.73;100.00;56421.06;6124172;23;20100;-93
2023/01/14 00:06:24;;;;;;;11.98;2.15;;;;;;;-146.73;100.00;56421.06;6125239;23;20084;-92
2023/01/14 00:08:58;;;;;;;12.25;1.95;;;;;;;-146.73;100.00;56421.06;6151605;23;20071;-94
2023/01/14 00:14:09;;;;;;;19.33;2.80;;;;;;;-146.73;100.00;56421.06;6153403;23;20144;-93
2023/01/14 00:16:35;;;;;;;17.52;3.10;;;;;;;-146.73;100.00;56421.06;6153625;23;20013;-94
2023/01/14 00:19:03;;;;;;;8.63;2.40;;;;;;;-146.73;100.00;56421.06;6153020;23;20462;-94
2023/01/14 00:21:29;;;;;;;13.25;2.42;;;;;;;-146.73;100.00;56421.06;6127700;23;20032;-94
2023/01/14 00:24:00;;;;;;;15.10;2.53;;;;;;;-146.73;100.00;56421.06;6127627;23;20009;-94
2023/01/14 00:26:26;;;;;;;15.68;2.38;;;;;;;-146.73;100.00;56421.06;6153901;23;20257;-94
2023/01/14 00:28:52;;;;;;;11.50;1.98;;;;;;;-146.73;100.00;56421.06;6127499;23;20044;-94
2023/01/14 00:31:25;;;;;;;22.80;2.30;;;;;;;-146.73;100.00;56421.06;6152620;23;20013;-94
2023/01/14 00:33:51;;;;;;;19.13;2.92;;;;;;;-146.73;100.00;56421.06;6153780;23;20002;-93
2023/01/14 00:36:30;;;;;;;18.70;2.15;;;;;;;-146.73;100.00;56421.06;6126652;23;20020;-94
2023/01/14 00:39:03;;;;;;;15.70;2.40;;;;;;;-146.73;100.00;56421.06;6153183;23;20009;-92
2023/01/14 00:41:28;;;;;;;14.25;3.50;;;;;;;-146.73;100.00;56421.06;6126128;23;20081;-93
2023/01/14 00:44:03;;;;;;;17.65;2.80;;;;;;;-146.73;100.00;56421.06;6152030;23;20041;-92
2023/01/14 00:46:32;;;;;;;15.77;2.60;;;;;;;-146.73;100.00;56421.06;6124379;23;20746;-95
2023/01/14 00:49:01;;;;;;;20.27;3.33;;;;;;;-146.73;100.00;56421.06;6127977;23;20018;-94
2023/01/14 00:51:36;;;;;;;17.92;3.80;;;;;;;-146.73;100.00;56421.06;6153408;23;20005;-94
2023/01/14 00:54:05;;;;;;;16.27;4.05;;;;;;;-146.73;100.00;56421.06;6152704;23;20068;-94
2023/01/14 00:56:57;;;;;;;16.73;4.38;;;;;;;-146.73;100.00;56421.06;6124121;23;20068;-93
2023/01/14 00:59:28;;;;;;;18.10;4.68;;;;;;;-146.73;100.00;56421.06;6116143;23;20005;-93
2023/01/14 01:02:06;;;;;;;19.23;4.72;;;;;;;-146.73;100.00;56421.06;6154084;23;20017;-92
2023/01/14 01:04:37;;;;;;;18.40;4.72;;;;;;;-146.73;100.00;56421.06;6127474;23;20451;-94
2023/01/14 01:07:05;;;;;;;24.10;5.72;;;;;;;-146.73;100.00;56421.06;6153637;23;19998;-93
2023/01/14 01:09:57;;;;;;;15.68;4.63;;;;;;;-146.73;100.00;56421.06;6155179;23;20016;-94
2023/01/14 01:12:25;;;;;;;22.58;4.78;;;;;;;-146.73;100.00;56421.06;6154134;23;20062;-94
2023/01/14 01:14:57;;;;;;;17.60;4.75;;;;;;;-146.73;100.00;56421.06;6128447;23;20008;-94
2023/01/14 01:17:30;;;;;;;19.38;4.93;;;;;;;-146.73;100.00;56421.06;6153568;23;20084;-93
2023/01/14 01:19:55;;;;;;;;;;;;;;;-146.73;100.00;56421.06;6127116;23;20026;-93
2023/01/14 01:22:37;;;;;;;14.43;4.22;;;;;;;-146.73;100.00;56421.06;6126819;23;19915;-93
2023/01/14 01:25:09;;;;;;;14.95;4.53;;;;;;;-146.73;100.00;56421.06;6126227;23;20013;-93
2023/01/14 01:27:43;;;;;;;23.48;4.80;;;;;;;-146.73;100.00;56421.06;6127257;23;20012;-92
2023/01/14 01:30:16;;;;;;;16.27;5.15;;;;;;;-146.73;100.00;56421.06;6126933;23;20005;-93
2023/01/14 01:32:41;;;;;;;13.48;5.10;;;;;;;-146.73;100.00;56421.06;6154994;23;20010;-94
2023/01/14 01:35:22;;;;;;;15.45;4.90;;;;;;;-146.73;100.00;56421.06;6130207;23;20335;-92
2023/01/14 01:38:35;;;;;;;16.98;4.65;;;;;;;-146.73;100.00;56421.06;6130266;23;20089;-91
2023/01/14 01:41:04;;;;;;;20.17;5.20;;;;;;;-146.73;100.00;56421.06;6152798;23;20032;-91
2023/01/14 01:43:35;;;;;;;19.45;5.22;;;;;;;-146.73;100.00;56421.06;6150977;23;20009;-90
2023/01/14 01:46:01;;;;;;;17.75;5.25;;;;;;;-146.73;100.00;56421.06;6151248;23;20005;-92
2023/01/14 01:49:23;;;;;;;23.15;5.97;;;;;;;-146.73;100.00;56421.06;6149799;23;20013;-90
2023/01/14 01:51:55;;;;;;;16.92;4.70;;;;;;;-146.73;100.00;56421.06;6031089;23;20086;-91
2023/01/14 01:54:33;;;;;;;25.40;4.75;;;;;;;-146.73;100.00;56421.06;6058203;23;20042;-92
2023/01/14 01:57:16;;;;;;;13.63;3.90;;;;;;;-146.73;100.00;56421.06;6057198;23;20022;-91
2023/01/14 01:59:58;;;;;;;16.40;3.97;;;;;;;-146.73;100.00;56421.06;6057773;23;20069;-92
2023/01/14 02:02:34;;;;;;;13.70;3.43;;;;;;;-146.73;100.00;56421.06;6035878;23;20015;-90
2023/01/14 02:05:03;;;;;;;13.18;3.10;;;;;;;-146.73;100.00;56421.06;6059620;23;20010;-91
2023/01/14 02:07:31;;;;;;;12.40;2.90;;;;;;;-146.73;100.00;56421.06;6059291;23;20022;-91
2023/01/14 02:10:07;;;;;;;12.13;3.90;;;;;;;-146.73;100.00;56421.06;6060507;23;20003;-92
2023/01/14 02:13:11;;;;;;;11.35;3.33;;;;;;;-146.73;100.00;56421.06;6058955;23;20557;-91
2023/01/14 02:16:03;;;;;;;11.38;3.80;;;;;;;-146.73;100.00;56421.06;6062698;23;20094;-91
2023/01/14 02:18:44;;;;;;;13.95;3.53;;;;;;;-146.73;100.00;56421.06;6008223;23;20011;-90
2023/01/14 02:21:16;;;;;;;14.15;3.40;;;;;;;-146.73;100.00;56421.06;6057608;23;20010;-90
2023/01/14 02:23:53;;;;;;;14.25;3.25;;;;;;;-146.73;100.00;56421.06;6056596;23;20058;-89
2023/01/14 02:26:46;;;;;;;18.00;3.85;;;;;;;-146.73;100.00;56421.06;6057885;23;20014;-90
2023/01/14 02:29:59;;;;;;;12.43;3.38;;;;;;;-146.73;100.00;56421.06;6119379;23;20009;-90
2023/01/14 02:32:35;;;;;;;11.77;3.20;;;;;;;-146.73;100.00;56421.06;6121584;23;20005;-90
2023/01/14 02:35:31;;;;;;;14.05;2.97;;;;;;;-146.73;100.00;56421.06;6149897;23;20104;-90
2023/01/14 02:38:41;;;;;;;11.05;2.97;;;;;;;-146.73;100.00;56421.06;6124013;23;20091;-89
2023/01/14 02:41:12;;;;;;;14.10;2.80;;;;;;;-146.73;100.00;56421.06;6089216;23;20018;-91
2023/01/14 02:46:48;;;;;;;10.57;3.00;;;;;;;-146.73;100.00;56421.06;6087527;23;20158;-91
2023/01/14 02:49:19;;;;;;;101.47;11.95;;;;;;;-146.73;100.00;56421.06;6062997;23;20046;-91
2023/01/14 02:51:47;;;;;;;9.00;2.60;;;;;;;-146.73;100.00;56421.06;6088875;23;20013;-91
2023/01/14 02:54:12;;;;;;;11.73;2.83;;;;;;;-146.73;100.00;56421.06;6088063;23;20018;-91
2023/01/14 02:56:39;;;;;;;14.32;3.00;;;;;;;-146.73;100.00;56421.06;6063410;23;20021;-91
2023/01/14 02:59:29;;;;;;;9.85;2.40;;;;;;;-146.73;100.00;56421.06;6084301;23;20089;-90
2023/01/14 03:02:18;;;;;;;9.18;2.70;;;;;;;-146.73;100.00;56421.06;6143799;23;20005;31
2023/01/14 03:05:02;;;;;;;11.98;2.92;;;;;;;-146.73;100.00;56421.06;6120148;23;20097;-95
2023/01/14 03:07:30;;;;;;;;;;;;;;;-146.73;100.00;56421.06;6124323;23;20074;-96
2023/01/14 03:10:15;;;;;;;9.25;2.03;;;;;;;-146.73;100.00;56421.06;6126762;23;19901;-95
2023/01/14 03:12:49;;;;;;;16.00;2.58;;;;;;;-146.73;100.00;56421.06;6152119;23;20004;-96
2023/01/14 03:15:27;;;;;;;9.23;2.80;;;;;;;-146.73;100.00;56421.06;6152215;23;20001;-95
2023/01/14 03:18:04;;;;;;;9.77;2.80;;;;;;;-146.73;100.00;56421.06;6126899;23;20017;-96
2023/01/14 03:20:38;;;;;;;8.32;2.35;;;;;;;-146.73;100.00;56421.06;6125745;23;20028;-96
2023/01/14 03:23:09;;;;;;;;;;;;;;;-146.73;100.00;56421.06;6126904;23;19994;-95
2023/01/14 03:25:39;;;;;;;8.90;2.28;;;;;;;-146.73;100.00;56421.06;6151157;23;19901;-96
2023/01/14 03:28:11;;;;;;;10.30;2.33;;;;;;;-146.73;100.00;56421.06;6107171;23;20010;-96
2023/01/14 03:30:41;;;;;;;12.05;2.30;;;;;;;-146.73;100.00;56421.06;6102362;23;20005;-96
2023/01/14 03:33:10;;;;;;;10.50;2.60;;;;;;;-146.73;100.00;56421.06;6104159;23;20021;-95
2023/01/14 03:35:40;;;;;;;18.30;2.65;;;;;;;-146.73;100.00;56421.06;6118180;23;20010;-96
2023/01/14 03:38:18;;;;;;;127.15;12.60;;;;;;;-146.73;100.00;56421.06;6129603;23;20022;-96
2023/01/14 03:40:45;;;;;;;9.40;2.10;;;;;;;-146.73;100.00;56421.06;6104090;23;20006;-96
2023/01/14 03:43:26;;;;;;;11.52;2.35;;;;;;;-146.73;100.00;56421.06;6102071;23;20065;-96
2023/01/14 03:45:56;;;;;;;15.00;2.70;;;;;;;-146.73;100.00;56421.06;6098053;23;20010;-96
2023/01/14 03:48:21;;;;;;;7.97;2.38;;;;;;;-146.73;100.00;56421.06;6098316;23;20058;-96
2023/01/14 03:51:08;;;;;;;9.18;2.15;;;;;;;-146.73;100.00;56421.06;6130651;23;19994;-96
2023/01/14 03:53:41;;;;;;;7.90;2.30;;;;;;;-146.73;100.00;56421.06;6127303;23;20013;-95
2023/01/14 03:56:25;;;;;;;11.38;2.50;;;;;;;-146.73;100.00;56421.06;6127103;23;20002;-96
2023/01/14 03:59:14;;;;;;;12.40;2.53;;;;;;;-146.73;100.00;56421.06;6126664;23;20049;-96
2023/01/14 04:01:51;;;;;;;7.40;2.35;;;;;;;-146.73;100.00;56421.06;6126006;23;19990;-95
2023/01/14 04:04:17;;;;;;;8.73;2.50;;;;;;;-146.73;100.00;56421.06;6171605;23;20017;-95
2023/01/14 04:06:48;;;;;;;11.60;2.50;;;;;;;-146.73;100.00;56421.06;6180962;23;20020;-95
2023/01/14 04:09:14;;;;;;;8.65;2.38;;;;;;;-146.73;100.00;56421.06;6172218;23;20012;-94
2023/01/14 04:11:41;;;;;;;100.07;10.95;;;;;;;-146.73;100.00;56421.06;6156472;23;20037;-96
2023/01/14 04:16:51;;;;;;;9.50;2.42;;;;;;;-146.73;100.00;56421.06;6157850;23;20016;-95
2023/01/14 04:19:17;;;;;;;7.53;2.25;;;;;;;-146.73;100.00;56421.06;6157005;23;20009;-95
2023/01/14 04:21:42;;;;;;;8.07;2.40;;;;;;;-146.73;100.00;56421.06;6156615;23;20117;-96
2023/01/14 04:24:08;;;;;;;8.05;2.58;;;;;;;-146.73;100.00;56421.06;6156542;23;20015;-96
2023/01/14 04:26:33;;;;;;;7.32;2.30;;;;;;;-146.73;100.00;56421.06;6156671;23;20390;-95
2023/01/14 04:28:59;;;;;;;9.70;2.70;;;;;;;-146.73;100.00;56421.06;6158689;23;20004;-96
2023/01/14 04:31:24;;;;;;;8.00;2.30;;;;;;;-146.73;100.00;56421.06;6157086;23;20008;-96
2023/01/14 04:33:50;;;;;;;12.07;2.55;;;;;;;-146.73;100.00;56421.06;6157621;23;20104;-96
2023/01/14 04:36:16;;;;;;;31.00;4.15;;;;;;;-146.73;100.00;56421.06;6155916;23;20407;-95
2023/01/14 04:38:41;;;;;;;8.18;1.90;;;;;;;-146.73;100.00;56421.06;6159428;23;20564;-93
2023/01/14 04:42:25;;;;;;;5.78;1.50;;;;;;;-146.73;100.00;56421.06;6156824;23;19997;-96
2023/01/14 04:43:54;;;;;;;7.07;1.67;;;;;;;-146.73;100.00;56421.06;6155903;23;20032;-96
2023/01/14 04:46:19;;;;;;;8.90;1.70;;;;;;;-146.73;100.00;56421.06;6157479;23;20051;-95
2023/01/14 04:48:46;;;;;;;5.38;1.50;;;;;;;-146.73;100.00;56421.06;6157409;23;20368;-94
2023/01/14 04:51:12;;;;;;;434.55;36.65;;;;;;;-146.73;100.00;56421.06;6157563;23;20009;-96
2023/01/14 04:53:38;;;;;;;6.07;1.70;;;;;;;-146.73;100.00;56421.06;6156648;23;20009;-95
2023/01/14 04:56:07;;;;;;;5.88;1.58;;;;;;;-146.73;100.00;56421.06;6157476;23;20005;-94
2023/01/14 04:58:36;;;;;;;9.18;1.65;;;;;;;-146.73;100.00;56421.06;6156454;23;20020;-95
2023/01/14 05:01:01;;;;;;;8.35;1.75;;;;;;;-146.73;100.00;56421.06;6156789;23;20514;-94
2023/01/14 05:03:27;;;;;;;5.90;1.60;;;;;;;-146.73;100.00;56421.06;6157343;23;20028;-95
2023/01/14 05:05:53;;;;;;;6.13;1.60;;;;;;;-146.73;100.00;56421.06;6156464;23;20419;-93
2023/01/14 05:08:19;;;;;;;7.18;1.70;;;;;;;-146.73;100.00;56421.06;6157951;23;20453;-94
2023/01/14 05:10:48;;;;;;;441.25;37.65;;;;;;;-146.73;100.00;56421.06;6155895;23;20482;-95
2023/01/14 05:13:17;;;;;;;6.40;1.65;;;;;;;-146.73;100.00;56421.06;6158122;23;20061;-95
2023/01/14 05:15:58;;;;;;;6.32;1.63;;;;;;;-146.73;100.00;56421.06;6181739;23;20225;-95
2023/01/14 05:18:23;;;;;;;5.80;1.63;;;;;;;-146.73;100.00;56421.06;6155701;23;20009;-96
2023/01/14 05:20:49;;;;;;;6.40;1.27;;;;;;;-146.73;100.00;56421.06;6156922;23;20017;-96
2023/01/14 05:23:16;;;;;;;13.25;3.17;;;;;;;-146.73;100.00;56421.06;6157103;23;20029;-94
2023/01/14 05:25:54;;;;;;;9.38;2.28;;;;;;;-146.73;100.00;56421.06;6157788;23;20041;-94
2023/01/14 05:28:20;;;;;;;20.17;3.22;;;;;;;-146.73;100.00;56421.06;6156695;23;20009;-95
2023/01/14 05:30:46;;;;;;;649.50;58.20;;;;;;;-146.73;100.00;56421.06;6183392;23;20028;-96
2023/01/14 05:33:14;;;;;;;1545.40;227.88;;;;;;;-146.73;100.00;56421.06;6156504;23;20016;-96
2023/01/14 05:35:39;;;;;;;6.13;1.67;;;;;;;-146.73;100.00;56421.06;6157855;23;20100;-96
2023/01/14 05:38:06;;;;;;;6.75;1.92;;;;;;;-146.73;100.00;56421.06;6156872;23;20031;-95
2023/01/14 05:40:32;;;;;;;7.43;1.80;;;;;;;-146.73;100.00;56421.06;6157484;23;20112;-96
2023/01/14 05:45:52;;;;;;;6.28;1.70;;;;;;;-146.73;100.00;56421.06;6158356;23;20028;-96
2023/01/14 05:48:24;;;;;;;6.88;1.60;;;;;;;-146.73;100.00;56421.06;6155698;23;20101;-95
2023/01/14 05:50:54;;;;;;;1541.35;135.20;;;;;;;-146.73;100.00;56421.06;6156532;23;20005;-96
2023/01/14 05:53:21;;;;;;;529.50;48.15;;;;;;;-146.73;100.00;56421.06;6180570;23;20005;-96
2023/01/14 05:55:48;;;;;;;5.78;1.33;;;;;;;-146.73;100.00;56421.06;6180618;23;20014;-95
2023/01/14 05:58:13;;;;;;;5.28;1.35;;;;;;;-146.73;100.00;56421.06;6179823;23;20084;-94
2023/01/14 06:06:47;;;;;;;3.45;0.80;;;;;;;-146.73;100.00;56421.06;6155876;23;20017;-95
2023/01/14 06:09:14;;;;;;;4.05;0.60;;;;;;;-146.73;100.00;56421.06;6152046;23;20020;-96
2023/01/14 06:11:42;;;;;;;2.88;0.80;;;;;;;-146.73;100.00;56421.06;6150169;23;20161;-93
2023/01/14 06:14:08;;;;;;;3.10;0.60;;;;;;;-146.73;100.00;56421.06;6153520;23;20017;-96
2023/01/14 06:16:40;;;;;;;3.15;0.77;;;;;;;-146.73;100.00;56421.06;6154378;23;20101;-95
2023/01/14 06:19:13;;;;;;;2.80;0.70;;;;;;;-146.73;100.00;56421.06;6154329;23;20001;-95
2023/01/14 06:21:39;;;;;;;4.45;0.88;;;;;;;-146.73;100.00;56421.06;6179255;23;20004;-96
2023/01/14 06:24:05;;;;;;;3.33;0.85;;;;;;;-146.73;100.00;56421.06;6154352;23;20001;-96
2023/01/14 06:26:33;;;;;;;61.22;8.10;;;;;;;-146.73;100.00;56421.06;6152013;23;20342;-96
2023/01/14 06:29:10;;;;;;;4.18;1.10;;;;;;;-146.73;100.00;56421.06;6178191;23;20017;-95
2023/01/14 06:31:36;;;;;;;3.85;0.80;;;;;;;-146.73;100.00;56421.06;6154169;23;20017;-94
2023/01/14 06:34:01;;;;;;;4.05;0.90;;;;;;;-146.73;100.00;56421.06;6179321;23;20017;-96
2023/01/14 06:36:28;;;;;;;3.83;0.70;;;;;;;-146.73;100.00;56421.06;6154253;23;20063;-96
2023/01/14 06:38:54;;;;;;;5.00;0.98;;;;;;;-146.73;100.00;56421.06;6153875;23;20033;-96
2023/01/14 06:41:20;;;;;;;10.40;1.05;;;;;;;-146.73;100.00;56421.06;6154685;23;19998;-96
2023/01/14 06:43:45;;;;;;;6.95;1.27;;;;;;;-146.73;100.00;56421.06;6153610;23;20005;-96
2023/01/14 06:46:13;;;;;;;3.60;0.80;;;;;;;-146.73;100.00;56421.06;6154611;23;20084;-95
2023/01/14 06:48:39;;;;;;;2.33;0.60;;;;;;;-146.73;100.00;56421.06;6153728;23;20069;-96
2023/01/14 06:51:11;;;;;;;4.43;0.95;;;;;;;-146.73;100.00;56421.06;6154240;23;20040;-94
2023/01/14 06:53:37;;;;;;;2.35;0.60;;;;;;;-146.73;100.00;56421.06;6154902;23;20013;-95
2023/01/14 06:56:04;;;;;;;348.00;31.55;;;;;;;-146.73;100.00;56421.06;6154418;23;20001;-95
2023/01/14 06:58:30;;;;;;;16.50;1.88;;;;;;;-146.73;100.00;56421.06;6154484;23;20013;-96
2023/01/14 07:00:56;;;;;;;3.78;0.80;;;;;;;-146.73;100.00;56421.06;6153833;23;20507;-95
2023/01/14 07:03:22;;;;;;;3.35;0.65;;;;;;;-146.73;100.00;56421.06;6154601;23;20059;-96
2023/01/14 07:05:48;;;;;;;3.90;0.93;;;;;;;-146.73;100.00;56421.06;6153997;23;20005;-96
2023/01/14 07:08:18;;;;;;;3.28;0.77;;;;;;;-146.73;100.00;56421.06;6153651;23;20014;-95
2023/01/14 07:10:49;;;;;;;7.07;1.00;;;;;;;-146.73;100.00;56421.06;6158010;23;20009;-96
2023/01/14 07:13:48;;;;;;;4.10;0.80;;;;;;;-146.73;100.00;56421.06;6157395;23;20156;-96
2023/01/14 07:16:13;;;;;;;3.78;0.65;;;;;;;-146.73;100.00;56421.06;6154648;23;20001;-95
2023/01/14 07:18:39;;;;;;;6.53;0.80;;;;;;;-146.73;100.00;56421.06;6153177;23;20020;-93
2023/01/14 07:21:04;;;;;;;7.00;1.00;;;;;;;-146.73;100.00;56421.06;6153400;23;20415;-95
2023/01/14 07:23:30;;;;;;;3.55;0.93;;;;;;;-146.73;100.00;56421.06;6154263;23;20024;-94
2023/01/14 07:25:56;;;;;;;3.70;0.88;;;;;;;-146.73;100.00;56421.06;6155388;23;20025;-94
2023/01/14 07:28:26;;;;;;;3.70;0.90;;;;;;;-146.73;100.00;56421.06;6154733;23;20444;-94
2023/01/14 07:30:55;;;;;;;4.05;0.88;;;;;;;-146.73;100.00;56421.06;6179711;23;20013;-94
2023/01/14 07:33:21;;;;;;;5.53;0.70;;;;;;;-146.73;100.00;56421.06;6155185;23;20355;-93
2023/01/14 07:35:51;;;;;;;5.95;1.25;;;;;;;-146.73;100.00;56421.06;6149421;23;20095;-94
2023/01/14 07:38:18;;;;;;;3.13;0.65;;;;;;;-146.73;100.00;56421.06;6148488;23;20120;-94
2023/01/14 07:40:44;;;;;;;1.40;0.43;;;;;;;-146.73;100.00;56421.06;6173990;23;20005;-94
2023/01/14 07:43:11;;;;;;;2.42;0.52;;;;;;;-146.73;100.00;56421.06;6150036;23;20020;-95
2023/01/14 07:45:38;;;;;;;8.00;1.48;;;;;;;-146.73;100.00;56421.06;6151834;23;19997;-95
2023/01/14 07:48:03;;;;;;;2.42;0.63;;;;;;;-146.73;100.00;56421.06;6149683;23;20032;-92
2023/01/14 07:50:31;;;;;;;19.77;2.90;;;;;;;-146.73;100.00;56421.06;6151147;23;20430;-94
2023/01/14 07:53:06;;;;;;;9.82;1.15;;;;;;;-146.73;100.00;56421.06;6152133;23;20009;-95
2023/01/14 07:55:34;;;;;;;11.98;1.27;;;;;;;-146.73;100.00;56421.06;6176755;23;20346;-94
2023/01/14 07:57:59;;;;;;;3.25;0.70;;;;;;;-146.73;100.00;56421.06;6175948;23;20040;-95
2023/01/14 08:00:25;;;;;;;2.55;0.60;;;;;;;-146.73;100.00;56421.06;6152470;23;20006;-93
2023/01/14 08:02:51;;;;;;;2.60;0.60;;;;;;;-146.73;100.00;56421.06;6175469;23;20013;-95
2023/01/14 08:05:17;;;;;;;3.72;0.70;;;;;;;-146.73;100.00;56421.06;6152081;23;20005;-94
2023/01/14 08:07:42;;;;;;;2.20;0.60;;;;;;;-146.73;100.00;56421.06;6150370;23;20021;-94
2023/01/14 08:10:21;;;;;;;2.30;0.60;;;;;;;-146.73;100.00;56421.06;6151424;23;20109;-94
2023/01/14 08:12:53;;;;;;;4.00;0.90;;;;;;;-146.73;100.00;56421.06;6175487;23;20036;-96
2023/01/14 08:15:19;;;;;;;2.90;0.77;;;;;;;-146.73;100.00;56421.06;6152313;23;20029;-94
2023/01/14 08:17:44;;;;;;;4.20;0.95;;;;;;;-146.73;100.00;56421.06;6150576;23;20028;-96
2023/01/14 08:20:11;;;;;;;6.10;1.20;;;;;;;-146.73;100.00;56421.06;6150395;23;20016;-93
2023/01/14 08:22:40;;;;;;;5.15;1.20;;;;;;;-146.73;100.00;56421.06;6175465;23;20013;-93
2023/01/14 08:25:08;;;;;;;3.72;0.90;;;;;;;-146.73;100.00;56421.06;6152804;23;20024;-94
2023/01/14 08:27:34;;;;;;;3.00;0.75;;;;;;;-146.73;100.00;56421.06;6151653;23;20017;-94
2023/01/14 08:30:29;;;;;;;3.30;0.68;;;;;;;-146.73;100.00;56421.06;6153813;23;20005;-95
2023/01/14 08:33:02;;;;;;;1.15;0.30;;;;;;;-146.73;100.00;56421.06;6154445;23;20443;-92
2023/01/14 08:35:28;;;;;;;2.30;0.40;;;;;;;-146.73;100.00;56421.06;6177422;23;20305;-94
2023/01/14 08:37:56;;;;;;;3.92;0.85;;;;;;;-146.73;100.00;56421.06;6174640;23;20041;-95
2023/01/14 08:40:35;;;;;;;3.78;0.90;;;;;;;-146.73;100.00;56421.06;6151687;23;20013;-95
2023/01/14 08:43:00;;;;;;;9.52;2.30;;;;;;;-146.73;100.00;56421.06;6176741;23;20017;-95
2023/01/14 08:45:26;;;;;;;5.03;1.23;;;;;;;-146.73;100.00;56421.06;6152087;23;20370;-94
2023/01/14 08:47:51;;;;;;;5.80;1.35;;;;;;;-146.73;100.00;56421.06;6152156;23;20005;-94
2023/01/14 08:50:16;;;;;;;6.50;1.80;;;;;;;-146.73;100.00;56421.06;6152172;23;20080;-95
2023/01/14 08:52:42;;;;;;;6.00;1.70;;;;;;;-146.73;100.00;56421.06;6152182;23;19997;-94
2023/01/14 08:55:08;;;;;;;5.75;1.60;;;;;;;-146.73;100.00;56421.06;6152066;23;20128;-94
2023/01/14 08:57:33;;;;;;;5.15;1.27;;;;;;;-146.73;100.00;56421.06;6152458;23;20419;-93
2023/01/14 08:59:58;;;;;;;3.25;0.80;;;;;;;-146.73;100.00;56421.06;6176727;23;20016;-93
2023/01/14 09:02:24;;;;;;;4.18;0.93;;;;;;;-146.73;100.00;56421.06;6151145;23;20017;-93
2023/01/14 09:04:49;;;;;;;2.90;0.80;;;;;;;-146.73;100.00;56421.06;6152936;23;20092;-94
2023/01/14 09:18:13;;;;;;;3.35;0.75;;;;;;;-146.73;100.00;56421.06;6153195;23;20024;-93
2023/01/14 09:20:42;;;;;;;2.67;0.77;;;;;;;-146.73;100.00;56421.06;6152141;23;19998;-93
2023/01/14 09:23:09;;;;;;;1.88;0.40;;;;;;;-146.73;100.00;56421.06;6151853;23;20006;-93
2023/01/14 09:25:48;;;;;;;1.75;0.32;;;;;;;-146.73;100.00;56421.06;6152637;23;20518;-93
2023/01/14 09:28:20;;;;;;;1.50;0.38;;;;;;;-146.73;100.00;56421.06;6147421;23;20019;-95
2023/01/14 09:30:46;;;;;;;0.80;0.30;;;;;;;-146.73;100.00;56421.06;6153040;23;20005;-93
2023/01/14 09:33:28;;;;;;;1.30;0.30;;;;;;;-146.73;100.00;56421.06;6152386;23;20084;-94
2023/01/14 09:35:53;;;;;;;1.75;0.40;;;;;;;-146.73;100.00;56421.06;6152638;23;20097;-95
2023/01/14 09:38:33;;;;;;;1.60;0.40;;;;;;;-146.73;100.00;56421.06;6154153;23;20075;-94
2023/01/14 09:41:00;;;;;;;0.43;0.25;;;;;;;-146.73;100.00;56421.06;6152876;23;20033;-94
2023/01/14 09:43:39;;;;;;;1.38;0.30;;;;;;;-146.73;100.00;56421.06;6151255;23;20013;-93
2023/01/14 09:46:10;;;;;;;1.17;0.30;;;;;;;-146.73;100.00;56421.06;6152931;23;20001;-95
2023/01/14 09:49:00;;;;;;;1.05;0.30;;;;;;;-146.73;100.00;56421.06;6153065;23;20072;-94
2023/01/14 09:52:03;;;;;;;1.90;0.47;;;;;;;-146.73;100.00;56421.06;6152551;23;20010;-96
2023/01/14 09:55:04;;;;;;;1.73;0.50;;;;;;;-146.73;100.00;56421.06;6151527;23;20010;-93
2023/01/14 09:57:59;;;;;;;3.08;0.63;;;;;;;-146.73;100.00;56421.06;6151754;23;20084;-92
2023/01/14 10:01:07;;;;;;;2.55;0.60;;;;;;;-146.73;100.00;56421.06;6152435;23;20013;-95
2023/01/14 10:03:53;;;;;;;3.42;0.88;;;;;;;-146.73;100.00;56421.06;6152227;23;20052;-93
2023/01/14 10:06:29;;;;;;;5.25;1.30;;;;;;;-146.73;100.00;56421.06;6152363;23;20028;-92
2023/01/14 10:09:09;;;;;;;4.13;1.10;;;;;;;-146.73;100.00;56421.06;6151416;23;20088;-93
2023/01/14 10:11:58;;;;;;;7.03;1.33;;;;;;;-146.73;100.00;56421.06;6150789;23;20016;-95
2023/01/14 10:14:29;;;;;;;6.38;1.40;;;;;;;-146.73;100.00;56421.06;6152767;23;20013;-94
2023/01/14 10:17:04;;;;;;;7.13;1.50;;;;;;;-146.73;100.00;56421.06;6152815;23;20084;-94
2023/01/14 10:20:10;;;;;;;;;;;;;;;;;;;;;
2023/01/14 10:23:00;;;;;;;4.80;0.85;;;;;;;-146.73;100.00;56421.06;6150565;23;20097;-94
2023/01/14 10:25:32;;;;;;;2.55;0.70;;;;;;;-146.73;100.00;56421.06;6150109;23;20013;-95
2023/01/14 10:28:09;;;;;;;3.72;0.80;;;;;;;-146.73;100.00;56421.06;6150798;23;20010;-94
2023/01/14 10:31:18;;;;;;;1.20;0.40;;;;;;;-146.73;100.00;56421.06;6152293;23;20006;-94
2023/01/14 10:33:53;;;;;;;3.20;0.40;;;;;;;-146.73;100.00;56421.06;6132587;23;20084;-93
2023/01/14 10:36:32;;;;;;;7.53;0.73;;;;;;;-146.73;100.00;56421.06;6176032;23;20002;-94
2023/01/14 10:39:10;;;;;;;6.50;0.80;;;;;;;-146.73;100.00;56421.06;6176756;23;20021;-93
2023/01/14 10:44:43;;;;;;;8.10;0.82;;;;;;;-146.73;100.00;56421.06;6153405;23;20044;-94
2023/01/14 10:47:16;;;;;;;8.48;1.30;;;;;;;-146.73;100.00;56421.06;6177621;23;20063;-94
2023/01/14 10:50:06;;;;;;;6.70;1.13;;;;;;;-146.73;100.00;56421.06;6152086;23;20044;-93
2023/01/14 10:52:36;;;;;;;5.03;1.10;;;;;;;-146.73;100.00;56421.06;6176888;23;20036;-95
2023/01/14 10:55:11;;;;;;;8.27;1.30;;;;;;;-146.73;100.00;56421.06;6151457;23;20014;-94
2023/01/14 10:58:10;;;;;;;6.00;0.98;;;;;;;-146.73;100.00;56421.06;6154312;23;20010;-96
2023/01/14 11:00:53;;;;;;;6.05;0.82;;;;;;;-146.73;100.00;56421.06;6177871;23;20019;-93
2023/01/14 11:03:39;;;;;;;5.10;1.35;;;;;;;-146.73;100.00;56421.06;6152708;23;20025;-93
2023/01/14 11:06:33;;;;;;;;;;;;;;;;;;;;;
2023/01/14 11:08:59;;;;;;;8.60;1.25;;;;;;;-146.73;100.00;56421.06;6149205;23;20076;-93
2023/01/14 11:11:49;;;;;;;5.22;0.90;;;;;;;-146.73;100.00;56421.06;6153898;23;20052;-94
2023/01/14 11:14:39;;;;;;;3.78;1.13;;;;;;;-146.73;100.00;56421.06;6153414;23;20017;-92
2023/01/14 11:17:32;;;;;;;6.20;0.57;;;;;;;-146.73;100.00;56421.06;6178466;23;20025;-93
2023/01/14 11:20:31;;;;;;;2.80;0.50;;;;;;;-146.73;100.00;56421.06;6092886;23;20010;-94
2023/01/14 11:23:02;;;;;;;6.47;0.95;;;;;;;-146.73;100.00;56421.06;6068898;23;20010;-95
2023/01/14 11:25:33;;;;;;;3.03;0.63;;;;;;;-146.73;100.00;56421.06;6070279;23;20138;-95
2023/01/14 11:28:14;;;;;;;6.40;1.05;;;;;;;-146.73;100.00;56421.06;6093380;23;20019;-95
2023/01/14 11:30:53;;;;;;;8.75;0.88;;;;;;;-146.73;100.00;56421.06;6092501;23;20018;-93
2023/01/14 11:33:47;;;;;;;8.05;1.10;;;;;;;-146.73;100.00;56421.06;6069696;23;20010;-93
2023/01/14 11:36:36;;;;;;;7.07;1.38;;;;;;;-146.73;100.00;56421.06;6093999;23;20178;-94
2023/01/14 11:39:03;;;;;;;5.35;0.90;;;;;;;-146.73;100.00;56421.06;6069998;23;20065;-94
2023/01/14 11:41:42;;;;;;;4.47;0.75;;;;;;;-146.73;100.00;56421.06;6070025;23;20022;-94
2023/01/14 11:44:26;;;;;;;6.35;0.75;;;;;;;-146.73;100.00;56421.06;6069866;23;20066;-93
2023/01/14 11:47:19;;;;;;;8.63;0.95;;;;;;;-146.73;100.00;56421.06;6093256;23;20468;-95
2023/01/14 11:50:09;;;;;;;9.43;1.67;;;;;;;-146.73;100.00;56421.06;6093653;23;20107;-96
2023/01/14 11:52:46;;;;;;;14.60;2.20;;;;;;;-146.73;100.00;56421.06;6069279;23;20006;-94
2023/01/14 11:55:16;;;;;;;6.45;1.20;;;;;;;-146.73;100.00;56421.06;6068360;23;20010;-94
2023/01/14 11:57:49;;;;;;;5.30;1.30;;;;;;;-146.73;100.00;56421.06;6137924;23;20017;-94
2023/01/14 12:00:34;;;;;;;8.13;1.20;;;;;;;-146.73;100.00;56421.06;6153666;23;20092;-93
2023/01/14 12:03:22;;;;;;;3.50;0.77;;;;;;;-146.73;100.00;56421.06;6149549;23;20013;-95
2023/01/14 12:05:55;;;;;;;7.22;0.80;;;;;;;-146.73;100.00;56421.06;6151548;23;20005;-93
2023/01/14 12:08:30;;;;;;;4.22;0.73;;;;;;;-146.73;100.00;56421.06;6153413;23;20005;-92
2023/01/14 12:11:01;;;;;;;5.20;0.75;;;;;;;-146.73;100.00;56421.06;6177629;23;20009;-95